Terminal Aerodrome Forecast
Issued by NWS Twin Cities, MN

Home | Current Version | Previous Version | Graphics & Text | Print | Product List | Glossary On
Versions: 1 2 3 4 5 6 7 8 9 10 11 12 13 14 15 16 17 18 19 20 21 22 23 24 25 26 27 28 29 30
000
FTUS43 KMPX 162000 AAA
TAFMSP
TAF AMD
KMSP 162024Z 1620/1724 33014G22KT P6SM -SN BKN020 OVC050
      TEMPO 1620/1624 3SM -SN
     FM170100 31012KT P6SM -SN SCT015 BKN025
     FM171500 32006KT P6SM BKN025 BKN090=

USA.gov is the U.S. government's official web portal to all federal, state and local government web resources and services.